sensor_id;sensor_type;location;lat;lon;timestamp;P1;P2;P0
77777;PMS5003;66966;-34.746;138.604;2023-05-20T00:02:07;3;3;
77777;PMS5003;66966;-34.746;138.604;2023-05-20T00:04:33;2;2;
77777;PMS5003;66966;-34.746;138.604;2023-05-20T00:06:59;4;4;
77777;PMS5003;66966;-34.746;138.604;2023-05-20T00:09:24;3;3;
77777;PMS5003;66966;-34.746;138.604;2023-05-20T00:11:49;3;3;
77777;PMS5003;66966;-34.746;138.604;2023-05-20T00:14:15;2;2;
77777;PMS5003;66966;-34.746;138.604;2023-05-20T00:16:41;4;4;
77777;PMS5003;66966;-34.746;138.604;2023-05-20T00:19:07;6;6;
77777;PMS5003;66966;-34.746;138.604;2023-05-20T00:21:32;5;5;
77777;PMS5003;66966;-34.746;138.604;2023-05-20T00:23:58;6;5;
77777;PMS5003;66966;-34.746;138.604;2023-05-20T00:26:23;4;4;
77777;PMS5003;66966;-34.746;138.604;2023-05-20T00:28:49;6;5;
77777;PMS5003;66966;-34.746;138.604;2023-05-20T00:31:15;3;3;
77777;PMS5003;66966;-34.746;138.604;2023-05-20T00:33:40;3;3;
77777;PMS5003;66966;-34.746;138.604;2023-05-20T00:36:06;4;4;
77777;PMS5003;66966;-34.746;138.604;2023-05-20T00:38:32;1;1;
77777;PMS5003;66966;-34.746;138.604;2023-05-20T00:40:57;2;2;
77777;PMS5003;66966;-34.746;138.604;2023-05-20T00:43:23;4;3;
77777;PMS5003;66966;-34.746;138.604;2023-05-20T00:45:48;1;1;
77777;PMS5003;66966;-34.746;138.604;2023-05-20T00:48:14;1;1;
77777;PMS5003;66966;-34.746;138.604;2023-05-20T00:50:39;1;1;
77777;PMS5003;66966;-34.746;138.604;2023-05-20T00:53:05;1;1;
77777;PMS5003;66966;-34.746;138.604;2023-05-20T00:55:31;3;2;
77777;PMS5003;66966;-34.746;138.604;2023-05-20T00:57:56;1;1;
77777;PMS5003;66966;-34.746;138.604;2023-05-20T01:00:21;1;1;
77777;PMS5003;66966;-34.746;138.604;2023-05-20T01:02:47;3;2;
77777;PMS5003;66966;-34.746;138.604;2023-05-20T01:05:13;2;2;
77777;PMS5003;66966;-34.746;138.604;2023-05-20T01:07:38;2;2;
77777;PMS5003;66966;-34.746;138.604;2023-05-20T01:10:04;3;2;
77777;PMS5003;66966;-34.746;138.604;2023-05-20T01:12:30;2;2;
77777;PMS5003;66966;-34.746;138.604;2023-05-20T01:14:57;2;2;
77777;PMS5003;66966;-34.746;138.604;2023-05-20T01:17:21;2;2;
77777;PMS5003;66966;-34.746;138.604;2023-05-20T01:19:46;1;1;
77777;PMS5003;66966;-34.746;138.604;2023-05-20T01:22:12;0;0;
77777;PMS5003;66966;-34.746;138.604;2023-05-20T01:24:38;1;1;
77777;PMS5003;66966;-34.746;138.604;2023-05-20T01:27:03;1;1;
77777;PMS5003;66966;-34.746;138.604;2023-05-20T01:29:28;2;2;
77777;PMS5003;66966;-34.746;138.604;2023-05-20T01:31:54;0;0;
77777;PMS5003;66966;-34.746;138.604;2023-05-20T01:34:19;0;0;
77777;PMS5003;66966;-34.746;138.604;2023-05-20T01:36:45;1;1;
77777;PMS5003;66966;-34.746;138.604;2023-05-20T01:39:10;2;1;
77777;PMS5003;66966;-34.746;138.604;2023-05-20T01:41:35;1;1;
77777;PMS5003;66966;-34.746;138.604;2023-05-20T01:44:01;1;0;
77777;PMS5003;66966;-34.746;138.604;2023-05-20T01:46:26;2;1;
77777;PMS5003;66966;-34.746;138.604;2023-05-20T01:48:52;2;2;
77777;PMS5003;66966;-34.746;138.604;2023-05-20T01:51:17;1;1;
77777;PMS5003;66966;-34.746;138.604;2023-05-20T01:53:43;0;0;
77777;PMS5003;66966;-34.746;138.604;2023-05-20T01:56:09;0;0;
77777;PMS5003;66966;-34.746;138.604;2023-05-20T01:58:34;0;0;
77777;PMS5003;66966;-34.746;138.604;2023-05-20T02:00:59;0;0;
77777;PMS5003;66966;-34.746;138.604;2023-05-20T02:03:25;2;0;
77777;PMS5003;66966;-34.746;138.604;2023-05-20T02:05:50;0;0;
77777;PMS5003;66966;-34.746;138.604;2023-05-20T02:08:16;0;0;
77777;PMS5003;66966;-34.746;138.604;2023-05-20T02:10:42;1;0;
77777;PMS5003;66966;-34.746;138.604;2023-05-20T02:13:08;0;0;
77777;PMS5003;66966;-34.746;138.604;2023-05-20T02:15:32;0;0;
77777;PMS5003;66966;-34.746;138.604;2023-05-20T02:17:58;1;0;
77777;PMS5003;66966;-34.746;138.604;2023-05-20T02:20:23;0;0;
77777;PMS5003;66966;-34.746;138.604;2023-05-20T02:22:49;0;0;
77777;PMS5003;66966;-34.746;138.604;2023-05-20T02:25:15;0;0;
77777;PMS5003;66966;-34.746;138.604;2023-05-20T02:27:40;0;0;
77777;PMS5003;66966;-34.746;138.604;2023-05-20T02:30:06;0;0;
77777;PMS5003;66966;-34.746;138.604;2023-05-20T02:32:31;0;0;
77777;PMS5003;66966;-34.746;138.604;2023-05-20T02:34:56;0;0;
77777;PMS5003;66966;-34.746;138.604;2023-05-20T02:37:22;0;0;
77777;PMS5003;66966;-34.746;138.604;2023-05-20T02:39:47;1;0;
77777;PMS5003;66966;-34.746;138.604;2023-05-20T02:42:13;0;0;
77777;PMS5003;66966;-34.746;138.604;2023-05-20T02:44:38;0;0;
77777;PMS5003;66966;-34.746;138.604;2023-05-20T02:47:04;0;0;
77777;PMS5003;66966;-34.746;138.604;2023-05-20T02:49:30;0;0;
77777;PMS5003;66966;-34.746;138.604;2023-05-20T02:51:55;0;0;
77777;PMS5003;66966;-34.746;138.604;2023-05-20T02:54:20;0;0;
77777;PMS5003;66966;-34.746;138.604;2023-05-20T02:56:46;0;0;
77777;PMS5003;66966;-34.746;138.604;2023-05-20T02:59:11;0;0;
77777;PMS5003;66966;-34.746;138.604;2023-05-20T03:01:37;0;0;
77777;PMS5003;66966;-34.746;138.604;2023-05-20T03:04:02;0;0;
77777;PMS5003;66966;-34.746;138.604;2023-05-20T03:06:28;1;1;
77777;PMS5003;66966;-34.746;138.604;2023-05-20T03:08:53;0;0;
77777;PMS5003;66966;-34.746;138.604;2023-05-20T03:11:18;0;0;
77777;PMS5003;66966;-34.746;138.604;2023-05-20T03:13:44;0;0;
77777;PMS5003;66966;-34.746;138.604;2023-05-20T03:16:09;0;0;
77777;PMS5003;66966;-34.746;138.604;2023-05-20T03:18:35;0;0;
77777;PMS5003;66966;-34.746;138.604;2023-05-20T03:21:00;0;0;
77777;PMS5003;66966;-34.746;138.604;2023-05-20T03:23:26;0;0;
77777;PMS5003;66966;-34.746;138.604;2023-05-20T03:25:51;0;0;
77777;PMS5003;66966;-34.746;138.604;2023-05-20T03:28:17;0;0;
77777;PMS5003;66966;-34.746;138.604;2023-05-20T03:30:42;1;0;
77777;PMS5003;66966;-34.746;138.604;2023-05-20T03:33:07;0;0;
77777;PMS5003;66966;-34.746;138.604;2023-05-20T03:35:33;2;1;
77777;PMS5003;66966;-34.746;138.604;2023-05-20T03:37:59;0;0;
77777;PMS5003;66966;-34.746;138.604;2023-05-20T03:40:24;0;0;
77777;PMS5003;66966;-34.746;138.604;2023-05-20T03:42:49;0;0;
77777;PMS5003;66966;-34.746;138.604;2023-05-20T03:45:15;0;0;
77777;PMS5003;66966;-34.746;138.604;2023-05-20T03:47:40;0;0;
77777;PMS5003;66966;-34.746;138.604;2023-05-20T03:50:06;0;0;
77777;PMS5003;66966;-34.746;138.604;2023-05-20T03:52:31;0;0;
77777;PMS5003;66966;-34.746;138.604;2023-05-20T03:54:56;0;0;
77777;PMS5003;66966;-34.746;138.604;2023-05-20T03:57:22;1;0;
77777;PMS5003;66966;-34.746;138.604;2023-05-20T03:59:47;0;0;
77777;PMS5003;66966;-34.746;138.604;2023-05-20T04:02:13;1;0;
77777;PMS5003;66966;-34.746;138.604;2023-05-20T04:04:38;0;0;
77777;PMS5003;66966;-34.746;138.604;2023-05-20T04:07:04;0;0;
77777;PMS5003;66966;-34.746;138.604;2023-05-20T04:09:29;1;1;
77777;PMS5003;66966;-34.746;138.604;2023-05-20T04:11:54;0;0;
77777;PMS5003;66966;-34.746;138.604;2023-05-20T04:14:20;0;0;
77777;PMS5003;66966;-34.746;138.604;2023-05-20T04:16:45;0;0;
77777;PMS5003;66966;-34.746;138.604;2023-05-20T04:19:11;1;0;
77777;PMS5003;66966;-34.746;138.604;2023-05-20T04:21:36;0;0;
77777;PMS5003;66966;-34.746;138.604;2023-05-20T04:24:02;0;0;
77777;PMS5003;66966;-34.746;138.604;2023-05-20T04:26:27;0;0;
77777;PMS5003;66966;-34.746;138.604;2023-05-20T04:28:53;0;0;
77777;PMS5003;66966;-34.746;138.604;2023-05-20T04:31:18;0;0;
77777;PMS5003;66966;-34.746;138.604;2023-05-20T04:33:43;0;0;
77777;PMS5003;66966;-34.746;138.604;2023-05-20T04:36:09;1;0;
77777;PMS5003;66966;-34.746;138.604;2023-05-20T04:38:35;1;0;
77777;PMS5003;66966;-34.746;138.604;2023-05-20T04:41:00;0;0;
77777;PMS5003;66966;-34.746;138.604;2023-05-20T04:43:25;1;0;
77777;PMS5003;66966;-34.746;138.604;2023-05-20T04:45:51;0;0;
77777;PMS5003;66966;-34.746;138.604;2023-05-20T04:48:16;0;0;
77777;PMS5003;66966;-34.746;138.604;2023-05-20T04:50:42;0;0;
77777;PMS5003;66966;-34.746;138.604;2023-05-20T04:53:07;0;0;
77777;PMS5003;66966;-34.746;138.604;2023-05-20T04:55:32;0;0;
77777;PMS5003;66966;-34.746;138.604;2023-05-20T04:57:58;0;0;
77777;PMS5003;66966;-34.746;138.604;2023-05-20T05:00:23;0;0;
77777;PMS5003;66966;-34.746;138.604;2023-05-20T05:02:49;0;0;
77777;PMS5003;66966;-34.746;138.604;2023-05-20T05:05:14;0;0;
77777;PMS5003;66966;-34.746;138.604;2023-05-20T05:07:40;0;0;
77777;PMS5003;66966;-34.746;138.604;2023-05-20T05:10:05;0;0;
77777;PMS5003;66966;-34.746;138.604;2023-05-20T05:12:31;0;0;
77777;PMS5003;66966;-34.746;138.604;2023-05-20T05:14:56;0;0;
77777;PMS5003;66966;-34.746;138.604;2023-05-20T05:17:22;0;0;
77777;PMS5003;66966;-34.746;138.604;2023-05-20T05:19:47;0;0;
77777;PMS5003;66966;-34.746;138.604;2023-05-20T05:22:12;1;0;
77777;PMS5003;66966;-34.746;138.604;2023-05-20T05:24:38;0;0;
77777;PMS5003;66966;-34.746;138.604;2023-05-20T05:27:04;0;0;
77777;PMS5003;66966;-34.746;138.604;2023-05-20T05:29:29;1;0;
77777;PMS5003;66966;-34.746;138.604;2023-05-20T05:31:54;0;0;
77777;PMS5003;66966;-34.746;138.604;2023-05-20T05:34:20;0;0;
77777;PMS5003;66966;-34.746;138.604;2023-05-20T05:36:45;0;0;
77777;PMS5003;66966;-34.746;138.604;2023-05-20T05:39:11;0;0;
77777;PMS5003;66966;-34.746;138.604;2023-05-20T05:41:36;0;0;
77777;PMS5003;66966;-34.746;138.604;2023-05-20T05:44:03;0;0;
77777;PMS5003;66966;-34.746;138.604;2023-05-20T05:46:27;0;0;
77777;PMS5003;66966;-34.746;138.604;2023-05-20T05:48:52;0;0;
77777;PMS5003;66966;-34.746;138.604;2023-05-20T05:51:18;0;0;
77777;PMS5003;66966;-34.746;138.604;2023-05-20T05:53:43;0;0;
77777;PMS5003;66966;-34.746;138.604;2023-05-20T05:56:09;0;0;
77777;PMS5003;66966;-34.746;138.604;2023-05-20T05:58:34;0;0;
77777;PMS5003;66966;-34.746;138.604;2023-05-20T06:00:59;0;0;
77777;PMS5003;66966;-34.746;138.604;2023-05-20T06:03:26;0;0;
77777;PMS5003;66966;-34.746;138.604;2023-05-20T06:05:50;0;0;
77777;PMS5003;66966;-34.746;138.604;2023-05-20T06:08:16;1;1;
77777;PMS5003;66966;-34.746;138.604;2023-05-20T06:10:45;0;0;
77777;PMS5003;66966;-34.746;138.604;2023-05-20T06:13:07;0;0;
77777;PMS5003;66966;-34.746;138.604;2023-05-20T06:15:33;0;0;
77777;PMS5003;66966;-34.746;138.604;2023-05-20T06:17:58;0;0;
77777;PMS5003;66966;-34.746;138.604;2023-05-20T06:20:23;0;0;
77777;PMS5003;66966;-34.746;138.604;2023-05-20T06:22:49;0;0;
77777;PMS5003;66966;-34.746;138.604;2023-05-20T06:25:14;0;0;
77777;PMS5003;66966;-34.746;138.604;2023-05-20T06:27:40;0;0;
77777;PMS5003;66966;-34.746;138.604;2023-05-20T06:30:06;0;0;
77777;PMS5003;66966;-34.746;138.604;2023-05-20T06:32:31;0;0;
77777;PMS5003;66966;-34.746;138.604;2023-05-20T06:34:56;1;1;
77777;PMS5003;66966;-34.746;138.604;2023-05-20T06:37:21;1;1;
77777;PMS5003;66966;-34.746;138.604;2023-05-20T06:39:47;0;0;
77777;PMS5003;66966;-34.746;138.604;2023-05-20T06:42:12;0;0;
77777;PMS5003;66966;-34.746;138.604;2023-05-20T06:44:38;0;0;
77777;PMS5003;66966;-34.746;138.604;2023-05-20T06:47:03;0;0;
77777;PMS5003;66966;-34.746;138.604;2023-05-20T06:49:29;0;0;
77777;PMS5003;66966;-34.746;138.604;2023-05-20T06:51:55;0;0;
77777;PMS5003;66966;-34.746;138.604;2023-05-20T06:54:20;0;0;
77777;PMS5003;66966;-34.746;138.604;2023-05-20T06:56:45;0;0;
77777;PMS5003;66966;-34.746;138.604;2023-05-20T06:59:11;0;0;
77777;PMS5003;66966;-34.746;138.604;2023-05-20T07:01:36;0;0;
77777;PMS5003;66966;-34.746;138.604;2023-05-20T07:04:02;1;1;
77777;PMS5003;66966;-34.746;138.604;2023-05-20T07:06:27;0;0;
77777;PMS5003;66966;-34.746;138.604;2023-05-20T07:08:53;0;0;
77777;PMS5003;66966;-34.746;138.604;2023-05-20T07:11:19;0;0;
77777;PMS5003;66966;-34.746;138.604;2023-05-20T07:13:44;0;0;
77777;PMS5003;66966;-34.746;138.604;2023-05-20T07:16:10;0;0;
77777;PMS5003;66966;-34.746;138.604;2023-05-20T07:18:35;0;0;
77777;PMS5003;66966;-34.746;138.604;2023-05-20T07:21:01;0;0;
77777;PMS5003;66966;-34.746;138.604;2023-05-20T07:23:26;0;0;
77777;PMS5003;66966;-34.746;138.604;2023-05-20T07:25:52;0;0;
77777;PMS5003;66966;-34.746;138.604;2023-05-20T07:28:17;0;0;
77777;PMS5003;66966;-34.746;138.604;2023-05-20T07:30:43;0;0;
77777;PMS5003;66966;-34.746;138.604;2023-05-20T07:33:08;0;0;
77777;PMS5003;66966;-34.746;138.604;2023-05-20T07:35:34;1;1;
77777;PMS5003;66966;-34.746;138.604;2023-05-20T07:37:59;0;0;
77777;PMS5003;66966;-34.746;138.604;2023-05-20T07:40:25;1;1;
77777;PMS5003;66966;-34.746;138.604;2023-05-20T07:42:50;0;0;
77777;PMS5003;66966;-34.746;138.604;2023-05-20T07:45:16;2;1;
77777;PMS5003;66966;-34.746;138.604;2023-05-20T07:47:41;3;3;
77777;PMS5003;66966;-34.746;138.604;2023-05-20T07:50:07;3;3;
77777;PMS5003;66966;-34.746;138.604;2023-05-20T07:52:32;1;1;
77777;PMS5003;66966;-34.746;138.604;2023-05-20T07:54:58;2;2;
77777;PMS5003;66966;-34.746;138.604;2023-05-20T07:57:24;3;2;
77777;PMS5003;66966;-34.746;138.604;2023-05-20T07:59:49;1;1;
77777;PMS5003;66966;-34.746;138.604;2023-05-20T08:02:14;0;0;
77777;PMS5003;66966;-34.746;138.604;2023-05-20T08:04:40;1;1;
77777;PMS5003;66966;-34.746;138.604;2023-05-20T08:07:06;0;0;
77777;PMS5003;66966;-34.746;138.604;2023-05-20T08:09:32;0;0;
77777;PMS5003;66966;-34.746;138.604;2023-05-20T08:11:57;1;1;
77777;PMS5003;66966;-34.746;138.604;2023-05-20T08:14:22;0;0;
77777;PMS5003;66966;-34.746;138.604;2023-05-20T08:16:48;3;3;
77777;PMS5003;66966;-34.746;138.604;2023-05-20T08:19:13;1;1;
77777;PMS5003;66966;-34.746;138.604;2023-05-20T08:21:39;2;1;
77777;PMS5003;66966;-34.746;138.604;2023-05-20T08:24:05;2;1;
77777;PMS5003;66966;-34.746;138.604;2023-05-20T08:26:30;2;2;
77777;PMS5003;66966;-34.746;138.604;2023-05-20T08:28:56;4;4;
77777;PMS5003;66966;-34.746;138.604;2023-05-20T08:33:47;3;3;
77777;PMS5003;66966;-34.746;138.604;2023-05-20T08:36:12;5;5;
77777;PMS5003;66966;-34.746;138.604;2023-05-20T08:38:38;8;7;
77777;PMS5003;66966;-34.746;138.604;2023-05-20T08:41:04;6;6;
77777;PMS5003;66966;-34.746;138.604;2023-05-20T08:43:29;6;6;
77777;PMS5003;66966;-34.746;138.604;2023-05-20T08:45:55;6;6;
77777;PMS5003;66966;-34.746;138.604;2023-05-20T08:48:22;3;3;
77777;PMS5003;66966;-34.746;138.604;2023-05-20T08:50:48;3;3;
77777;PMS5003;66966;-34.746;138.604;2023-05-20T08:53:12;4;3;
77777;PMS5003;66966;-34.746;138.604;2023-05-20T08:55:41;3;3;
77777;PMS5003;66966;-34.746;138.604;2023-05-20T08:58:03;1;1;
77777;PMS5003;66966;-34.746;138.604;2023-05-20T09:00:29;26;25;
77777;PMS5003;66966;-34.746;138.604;2023-05-20T09:02:54;10;10;
77777;PMS5003;66966;-34.746;138.604;2023-05-20T09:05:20;7;7;
77777;PMS5003;66966;-34.746;138.604;2023-05-20T09:07:45;3;2;
77777;PMS5003;66966;-34.746;138.604;2023-05-20T09:10:10;4;4;
77777;PMS5003;66966;-34.746;138.604;2023-05-20T09:12:36;2;2;
77777;PMS5003;66966;-34.746;138.604;2023-05-20T09:15:01;5;4;
77777;PMS5003;66966;-34.746;138.604;2023-05-20T09:17:27;5;4;
77777;PMS5003;66966;-34.746;138.604;2023-05-20T09:19:52;4;4;
77777;PMS5003;66966;-34.746;138.604;2023-05-20T09:22:21;4;4;
77777;PMS5003;66966;-34.746;138.604;2023-05-20T09:24:44;4;3;
77777;PMS5003;66966;-34.746;138.604;2023-05-20T09:27:09;5;4;
77777;PMS5003;66966;-34.746;138.604;2023-05-20T09:29:35;4;3;
77777;PMS5003;66966;-34.746;138.604;2023-05-20T09:32:01;6;6;
77777;PMS5003;66966;-34.746;138.604;2023-05-20T09:34:26;4;4;
77777;PMS5003;66966;-34.746;138.604;2023-05-20T09:36:52;6;6;
77777;PMS5003;66966;-34.746;138.604;2023-05-20T09:39:18;3;3;
77777;PMS5003;66966;-34.746;138.604;2023-05-20T09:41:45;4;4;
77777;PMS5003;66966;-34.746;138.604;2023-05-20T09:44:08;5;4;
77777;PMS5003;66966;-34.746;138.604;2023-05-20T09:46:34;5;4;
77777;PMS5003;66966;-34.746;138.604;2023-05-20T09:49:00;5;5;
77777;PMS5003;66966;-34.746;138.604;2023-05-20T09:51:26;6;5;
77777;PMS5003;66966;-34.746;138.604;2023-05-20T09:53:51;8;7;
77777;PMS5003;66966;-34.746;138.604;2023-05-20T09:56:16;9;9;
77777;PMS5003;66966;-34.746;138.604;2023-05-20T09:58:42;20;17;
77777;PMS5003;66966;-34.746;138.604;2023-05-20T10:01:07;25;25;
77777;PMS5003;66966;-34.746;138.604;2023-05-20T10:03:32;29;28;
77777;PMS5003;66966;-34.746;138.604;2023-05-20T10:06:05;25;25;
77777;PMS5003;66966;-34.746;138.604;2023-05-20T10:08:26;20;20;
77777;PMS5003;66966;-34.746;138.604;2023-05-20T10:10:48;21;21;
77777;PMS5003;66966;-34.746;138.604;2023-05-20T10:13:16;17;16;
77777;PMS5003;66966;-34.746;138.604;2023-05-20T10:15:50;20;19;
77777;PMS5003;66966;-34.746;138.604;2023-05-20T10:18:09;16;15;
77777;PMS5003;66966;-34.746;138.604;2023-05-20T10:20:30;16;15;
77777;PMS5003;66966;-34.746;138.604;2023-05-20T10:22:55;14;13;
77777;PMS5003;66966;-34.746;138.604;2023-05-20T10:25:23;14;14;
77777;PMS5003;66966;-34.746;138.604;2023-05-20T10:27:46;15;14;
77777;PMS5003;66966;-34.746;138.604;2023-05-20T10:30:15;19;18;
77777;PMS5003;66966;-34.746;138.604;2023-05-20T10:32:47;20;18;
77777;PMS5003;66966;-34.746;138.604;2023-05-20T10:35:06;15;15;
77777;PMS5003;66966;-34.746;138.604;2023-05-20T10:37:30;15;15;
77777;PMS5003;66966;-34.746;138.604;2023-05-20T10:40:06;19;15;
77777;PMS5003;66966;-34.746;138.604;2023-05-20T10:44:45;34;31;
77777;PMS5003;66966;-34.746;138.604;2023-05-20T10:47:11;34;29;
77777;PMS5003;66966;-34.746;138.604;2023-05-20T10:49:38;32;30;
77777;PMS5003;66966;-34.746;138.604;2023-05-20T10:52:01;33;30;
77777;PMS5003;66966;-34.746;138.604;2023-05-20T10:54:26;25;23;
77777;PMS5003;66966;-34.746;138.604;2023-05-20T10:56:52;18;18;
77777;PMS5003;66966;-34.746;138.604;2023-05-20T10:59:17;16;14;
77777;PMS5003;66966;-34.746;138.604;2023-05-20T11:01:43;20;20;
77777;PMS5003;66966;-34.746;138.604;2023-05-20T11:04:08;17;17;
77777;PMS5003;66966;-34.746;138.604;2023-05-20T11:06:33;22;21;
77777;PMS5003;66966;-34.746;138.604;2023-05-20T11:09:03;32;32;
77777;PMS5003;66966;-34.746;138.604;2023-05-20T11:11:24;30;27;
77777;PMS5003;66966;-34.746;138.604;2023-05-20T11:13:50;19;19;
77777;PMS5003;66966;-34.746;138.604;2023-05-20T11:16:16;18;18;
77777;PMS5003;66966;-34.746;138.604;2023-05-20T11:18:41;15;15;
77777;PMS5003;66966;-34.746;138.604;2023-05-20T11:21:07;15;15;
77777;PMS5003;66966;-34.746;138.604;2023-05-20T11:23:32;15;14;
77777;PMS5003;66966;-34.746;138.604;2023-05-20T11:25:58;16;15;
77777;PMS5003;66966;-34.746;138.604;2023-05-20T11:28:24;17;14;
77777;PMS5003;66966;-34.746;138.604;2023-05-20T11:30:50;15;14;
77777;PMS5003;66966;-34.746;138.604;2023-05-20T11:33:14;16;15;
77777;PMS5003;66966;-34.746;138.604;2023-05-20T11:35:44;12;11;
77777;PMS5003;66966;-34.746;138.604;2023-05-20T11:38:05;19;18;
77777;PMS5003;66966;-34.746;138.604;2023-05-20T11:40:31;24;20;
77777;PMS5003;66966;-34.746;138.604;2023-05-20T11:42:57;19;19;
77777;PMS5003;66966;-34.746;138.604;2023-05-20T11:45:21;22;22;
77777;PMS5003;66966;-34.746;138.604;2023-05-20T11:50:16;9;9;
77777;PMS5003;66966;-34.746;138.604;2023-05-20T11:52:39;9;9;
77777;PMS5003;66966;-34.746;138.604;2023-05-20T11:55:04;7;6;
77777;PMS5003;66966;-34.746;138.604;2023-05-20T11:57:30;5;4;
77777;PMS5003;66966;-34.746;138.604;2023-05-20T11:59:55;3;2;
77777;PMS5003;66966;-34.746;138.604;2023-05-20T12:02:21;1;1;
77777;PMS5003;66966;-34.746;138.604;2023-05-20T12:04:47;2;2;
77777;PMS5003;66966;-34.746;138.604;2023-05-20T12:07:12;1;1;
77777;PMS5003;66966;-34.746;138.604;2023-05-20T12:09:38;3;2;
77777;PMS5003;66966;-34.746;138.604;2023-05-20T12:12:03;1;0;
77777;PMS5003;66966;-34.746;138.604;2023-05-20T12:14:29;0;0;
77777;PMS5003;66966;-34.746;138.604;2023-05-20T12:16:55;1;1;
77777;PMS5003;66966;-34.746;138.604;2023-05-20T12:19:20;2;1;
77777;PMS5003;66966;-34.746;138.604;2023-05-20T12:21:45;0;0;
77777;PMS5003;66966;-34.746;138.604;2023-05-20T12:24:11;1;0;
77777;PMS5003;66966;-34.746;138.604;2023-05-20T12:26:37;2;1;
77777;PMS5003;66966;-34.746;138.604;2023-05-20T12:29:03;1;1;
77777;PMS5003;66966;-34.746;138.604;2023-05-20T12:31:28;0;0;
77777;PMS5003;66966;-34.746;138.604;2023-05-20T12:33:53;0;0;
77777;PMS5003;66966;-34.746;138.604;2023-05-20T12:36:19;1;1;
77777;PMS5003;66966;-34.746;138.604;2023-05-20T12:38:45;0;0;
77777;PMS5003;66966;-34.746;138.604;2023-05-20T12:41:11;3;1;
77777;PMS5003;66966;-34.746;138.604;2023-05-20T12:43:36;2;0;
77777;PMS5003;66966;-34.746;138.604;2023-05-20T12:46:02;2;0;
77777;PMS5003;66966;-34.746;138.604;2023-05-20T12:48:27;0;0;
77777;PMS5003;66966;-34.746;138.604;2023-05-20T12:50:53;0;0;
77777;PMS5003;66966;-34.746;138.604;2023-05-20T12:53:19;1;1;
77777;PMS5003;66966;-34.746;138.604;2023-05-20T12:55:44;2;1;
77777;PMS5003;66966;-34.746;138.604;2023-05-20T12:58:10;1;0;
77777;PMS5003;66966;-34.746;138.604;2023-05-20T13:00:35;0;0;
77777;PMS5003;66966;-34.746;138.604;2023-05-20T13:03:01;2;1;
77777;PMS5003;66966;-34.746;138.604;2023-05-20T13:05:27;0;0;
77777;PMS5003;66966;-34.746;138.604;2023-05-20T13:07:52;0;0;
77777;PMS5003;66966;-34.746;138.604;2023-05-20T13:10:18;2;0;
77777;PMS5003;66966;-34.746;138.604;2023-05-20T13:12:43;0;0;
77777;PMS5003;66966;-34.746;138.604;2023-05-20T13:15:09;0;0;
77777;PMS5003;66966;-34.746;138.604;2023-05-20T13:17:35;2;1;
77777;PMS5003;66966;-34.746;138.604;2023-05-20T13:20:00;0;0;
77777;PMS5003;66966;-34.746;138.604;2023-05-20T13:22:26;0;0;
77777;PMS5003;66966;-34.746;138.604;2023-05-20T13:24:51;0;0;
77777;PMS5003;66966;-34.746;138.604;2023-05-20T13:27:17;0;0;
77777;PMS5003;66966;-34.746;138.604;2023-05-20T13:29:43;0;0;
77777;PMS5003;66966;-34.746;138.604;2023-05-20T13:32:08;1;0;
77777;PMS5003;66966;-34.746;138.604;2023-05-20T13:34:33;3;1;
77777;PMS5003;66966;-34.746;138.604;2023-05-20T13:36:59;1;0;
77777;PMS5003;66966;-34.746;138.604;2023-05-20T13:39:25;1;0;
77777;PMS5003;66966;-34.746;138.604;2023-05-20T13:41:51;0;0;
77777;PMS5003;66966;-34.746;138.604;2023-05-20T13:44:16;3;1;
77777;PMS5003;66966;-34.746;138.604;2023-05-20T13:46:42;0;0;
77777;PMS5003;66966;-34.746;138.604;2023-05-20T13:49:07;1;1;
77777;PMS5003;66966;-34.746;138.604;2023-05-20T13:51:33;1;1;
77777;PMS5003;66966;-34.746;138.604;2023-05-20T13:53:58;1;1;
77777;PMS5003;66966;-34.746;138.604;2023-05-20T13:56:23;0;0;
77777;PMS5003;66966;-34.746;138.604;2023-05-20T13:58:49;1;1;
77777;PMS5003;66966;-34.746;138.604;2023-05-20T14:01:15;2;0;
77777;PMS5003;66966;-34.746;138.604;2023-05-20T14:03:40;0;0;
77777;PMS5003;66966;-34.746;138.604;2023-05-20T14:06:06;0;0;
77777;PMS5003;66966;-34.746;138.604;2023-05-20T14:08:32;0;0;
77777;PMS5003;66966;-34.746;138.604;2023-05-20T14:10:57;0;0;
77777;PMS5003;66966;-34.746;138.604;2023-05-20T14:13:23;0;0;
77777;PMS5003;66966;-34.746;138.604;2023-05-20T14:15:48;0;0;
77777;PMS5003;66966;-34.746;138.604;2023-05-20T14:18:14;3;2;
77777;PMS5003;66966;-34.746;138.604;2023-05-20T14:20:39;0;0;
77777;PMS5003;66966;-34.746;138.604;2023-05-20T14:23:05;0;0;
77777;PMS5003;66966;-34.746;138.604;2023-05-20T14:25:30;1;1;
77777;PMS5003;66966;-34.746;138.604;2023-05-20T14:27:56;2;1;
77777;PMS5003;66966;-34.746;138.604;2023-05-20T14:30:22;3;0;
77777;PMS5003;66966;-34.746;138.604;2023-05-20T14:32:47;1;1;
77777;PMS5003;66966;-34.746;138.604;2023-05-20T14:35:13;3;0;
77777;PMS5003;66966;-34.746;138.604;2023-05-20T14:37:39;0;0;
77777;PMS5003;66966;-34.746;138.604;2023-05-20T14:40:04;2;1;
77777;PMS5003;66966;-34.746;138.604;2023-05-20T14:42:30;0;0;
77777;PMS5003;66966;-34.746;138.604;2023-05-20T14:44:55;2;1;
77777;PMS5003;66966;-34.746;138.604;2023-05-20T14:47:21;1;0;
77777;PMS5003;66966;-34.746;138.604;2023-05-20T14:49:47;1;0;
77777;PMS5003;66966;-34.746;138.604;2023-05-20T14:52:12;1;0;
77777;PMS5003;66966;-34.746;138.604;2023-05-20T14:54:39;0;0;
77777;PMS5003;66966;-34.746;138.604;2023-05-20T14:57:04;0;0;
77777;PMS5003;66966;-34.746;138.604;2023-05-20T14:59:29;1;0;
77777;PMS5003;66966;-34.746;138.604;2023-05-20T15:01:55;1;1;
77777;PMS5003;66966;-34.746;138.604;2023-05-20T15:04:20;2;1;
77777;PMS5003;66966;-34.746;138.604;2023-05-20T15:06:46;1;0;
77777;PMS5003;66966;-34.746;138.604;2023-05-20T15:09:11;2;0;
77777;PMS5003;66966;-34.746;138.604;2023-05-20T15:11:37;1;1;
77777;PMS5003;66966;-34.746;138.604;2023-05-20T15:14:02;5;1;
77777;PMS5003;66966;-34.746;138.604;2023-05-20T15:16:28;3;0;
77777;PMS5003;66966;-34.746;138.604;2023-05-20T15:18:54;1;1;
77777;PMS5003;66966;-34.746;138.604;2023-05-20T15:21:19;1;0;
77777;PMS5003;66966;-34.746;138.604;2023-05-20T15:23:45;0;0;
77777;PMS5003;66966;-34.746;138.604;2023-05-20T15:26:11;2;1;
77777;PMS5003;66966;-34.746;138.604;2023-05-20T15:28:36;0;0;
77777;PMS5003;66966;-34.746;138.604;2023-05-20T15:31:02;1;0;
77777;PMS5003;66966;-34.746;138.604;2023-05-20T15:33:28;0;0;
77777;PMS5003;66966;-34.746;138.604;2023-05-20T15:35:53;0;0;
77777;PMS5003;66966;-34.746;138.604;2023-05-20T15:38:18;0;0;
77777;PMS5003;66966;-34.746;138.604;2023-05-20T15:40:44;5;2;
77777;PMS5003;66966;-34.746;138.604;2023-05-20T15:43:10;1;1;
77777;PMS5003;66966;-34.746;138.604;2023-05-20T15:45:35;0;0;
77777;PMS5003;66966;-34.746;138.604;2023-05-20T15:48:01;2;1;
77777;PMS5003;66966;-34.746;138.604;2023-05-20T15:50:26;1;1;
77777;PMS5003;66966;-34.746;138.604;2023-05-20T15:52:52;2;1;